Time;durP1;ratioP1;P1;durP2;ratioP2;P2;SDS_P1;SDS_P2;PMS_P1;PMS_P2;Temp;Humidity;BMP_temperature;BMP_pressure;BME280_temperature;BME280_humidity;BME280_pressure;Samples;Min_cycle;Max_cycle;Signal;HPM_P1;HPM_P2
2022/06/10 00:01:11;;;;;;;9.25;7.88;;;;;;;22.26;65.56;100432.13;5034855;28;20121;-75
2022/06/10 00:03:36;;;;;;;10.00;8.27;;;;;;;22.23;65.59;100416.31;5018290;28;20159;-75
2022/06/10 00:06:08;;;;;;;7.72;6.88;;;;;;;22.30;65.37;100423.81;5036923;28;20048;-76
2022/06/10 00:08:38;;;;;;;8.63;7.80;;;;;;;22.31;65.27;100421.97;5032382;28;20037;-76
2022/06/10 00:11:05;;;;;;;9.35;8.35;;;;;;;22.33;65.46;100426.25;5036468;28;20037;-75
2022/06/10 00:13:33;;;;;;;8.98;8.07;;;;;;;22.36;65.19;100426.03;5025299;28;20041;-75
2022/06/10 00:15:59;;;;;;;10.45;8.68;;;;;;;22.42;65.12;100426.56;5035109;28;20044;-76
2022/06/10 00:18:27;;;;;;;9.02;8.07;;;;;;;22.42;65.06;100429.22;5036367;28;20037;-76
2022/06/10 00:20:52;;;;;;;8.00;7.10;;;;;;;22.45;65.12;100431.69;5035308;28;20037;-77
2022/06/10 00:23:18;;;;;;;8.80;7.90;;;;;;;22.50;64.81;100432.22;5001819;28;20366;-77
2022/06/10 00:25:45;;;;;;;10.20;6.72;;;;;;;22.56;64.70;100429.13;5018343;28;20116;-76
2022/06/10 00:28:11;;;;;;;9.02;7.90;;;;;;;22.61;64.52;100421.63;5016677;28;20029;-76
2022/06/10 00:30:37;;;;;;;10.02;8.93;;;;;;;22.58;64.65;100432.53;5035274;28;20033;-76
2022/06/10 00:33:03;;;;;;;9.60;8.60;;;;;;;22.51;64.76;100425.94;5017511;28;20034;-75
2022/06/10 00:35:29;;;;;;;10.57;9.48;;;;;;;22.47;64.80;100421.75;5035205;28;20029;-75
2022/06/10 00:37:55;;;;;;;9.55;8.55;;;;;;;22.50;64.78;100426.88;5001708;28;20507;-76
2022/06/10 00:40:24;;;;;;;10.18;8.90;;;;;;;22.41;65.26;100422.19;5016702;28;20037;-76
2022/06/10 00:42:50;;;;;;;10.55;8.93;;;;;;;22.36;65.32;100420.69;5016031;28;20033;-76
2022/06/10 00:45:53;;;;;;;9.98;8.98;;;;;;;22.19;66.34;100426.38;5032501;28;20041;-75
2022/06/10 00:48:41;;;;;;;9.20;8.23;;;;;;;22.10;66.32;100422.47;5034665;28;20056;-75
2022/06/10 00:51:19;;;;;;;10.50;9.40;;;;;;;21.87;67.75;100415.16;4977249;28;20044;-75
2022/06/10 00:53:49;;;;;;;12.05;9.57;;;;;;;21.93;67.01;100419.22;5033291;28;20036;-75
2022/06/10 00:56:21;;;;;;;10.75;9.65;;;;;;;21.88;68.13;100422.22;5007629;28;20127;-75
2022/06/10 00:58:56;;;;;;;11.15;9.95;;;;;;;21.97;67.35;100428.75;5033090;28;20040;-77
2022/06/10 01:01:22;;;;;;;10.10;9.05;;;;;;;22.01;67.47;100431.13;5034300;28;20044;-76
2022/06/10 01:03:49;;;;;;;11.07;9.88;;;;;;;22.10;67.12;100429.63;5033472;28;20026;-75
2022/06/10 01:06:14;;;;;;;10.32;8.85;;;;;;;22.13;66.95;100427.63;5033789;28;20038;-75
2022/06/10 01:08:42;;;;;;;10.57;9.13;;;;;;;22.12;67.32;100425.03;5015813;28;20025;-77
2022/06/10 01:11:23;;;;;;;10.35;9.25;;;;;;;22.10;67.58;100437.66;5016060;28;20044;-75
2022/06/10 01:14:08;;;;;;;9.93;8.93;;;;;;;22.07;67.88;100436.06;5031537;28;20045;-75
2022/06/10 01:17:03;;;;;;;10.48;9.38;;;;;;;22.00;68.41;100439.25;5014453;28;20046;-75
2022/06/10 01:19:48;;;;;;;11.25;8.88;;;;;;;21.93;68.47;100444.16;4990810;28;20552;-76
2022/06/10 01:22:23;;;;;;;10.10;9.02;;;;;;;21.98;68.72;100438.50;5032969;28;20038;-75
2022/06/10 01:24:54;;;;;;;10.68;8.43;;;;;;;22.01;67.91;100438.28;5010835;28;20572;-76
2022/06/10 01:27:50;;;;;;;8.82;7.93;;;;;;;22.01;68.70;100448.97;5015394;28;20481;-76
2022/06/10 01:30:29;;;;;;;8.50;7.70;;;;;;;21.94;68.58;100448.53;5030357;28;20123;-76
2022/06/10 01:33:29;;;;;;;8.40;7.60;;;;;;;21.87;69.48;100442.75;5015305;28;20037;-75
2022/06/10 01:36:01;;;;;;;8.35;6.50;;;;;;;21.60;70.60;100449.97;5030566;28;20065;-75
2022/06/10 01:38:39;;;;;;;7.55;6.75;;;;;;;21.53;71.18;100449.50;5030486;28;20026;-75
2022/06/10 01:41:26;;;;;;;6.22;5.63;;;;;;;21.72;70.04;100458.97;5032989;28;20040;-75
2022/06/10 01:44:05;;;;;;;6.97;6.05;;;;;;;21.71;70.03;100458.13;5014639;28;20095;-75
2022/06/10 01:46:33;;;;;;;6.43;5.75;;;;;;;21.72;70.18;100456.31;5013515;28;20030;-76
2022/06/10 01:49:07;;;;;;;7.65;6.80;;;;;;;21.60;71.17;100463.31;5032109;28;20033;-76
2022/06/10 01:51:56;;;;;;;8.07;6.20;;;;;;;21.60;71.68;100461.50;5013464;28;20107;-77
2022/06/10 01:54:44;;;;;;;6.38;5.78;;;;;;;21.61;70.80;100457.00;5013899;28;20033;-77
2022/06/10 01:57:15;;;;;;;8.93;5.72;;;;;;;21.56;71.11;100457.31;5032492;28;20037;-78
2022/06/10 01:59:57;;;;;;;8.95;6.82;;;;;;;21.50;71.60;100463.06;4992942;28;20036;-77
2022/06/10 02:02:27;;;;;;;7.57;5.73;;;;;;;21.56;70.53;100465.34;5033467;28;20036;-77
2022/06/10 02:04:57;;;;;;;6.53;5.93;;;;;;;21.64;70.57;100467.50;5028466;28;20511;-78
2022/06/10 02:07:37;;;;;;;6.60;5.47;;;;;;;21.69;70.26;100462.72;5032661;28;20496;-76
2022/06/10 02:10:29;;;;;;;5.90;5.30;;;;;;;21.70;70.19;100472.44;5030905;28;20033;-77
2022/06/10 02:13:01;;;;;;;6.40;5.25;;;;;;;21.61;70.27;100470.38;5033421;28;20038;-76
2022/06/10 02:15:29;;;;;;;;;;;;;;;21.73;70.10;100471.38;5031577;28;20538;-74
2022/06/10 02:18:08;;;;;;;7.18;5.28;;;;;;;21.69;70.02;100476.06;5015455;28;19924;-77
2022/06/10 02:20:37;;;;;;;6.03;5.45;;;;;;;21.77;69.60;100475.56;5033122;28;20033;-76
2022/06/10 02:23:06;;;;;;;6.10;5.50;;;;;;;21.69;69.96;100470.72;5029356;28;20040;-78
2022/06/10 02:25:42;;;;;;;7.97;6.75;;;;;;;21.73;69.86;100466.03;5031556;28;20143;-75
2022/06/10 02:28:12;;;;;;;7.88;6.72;;;;;;;21.75;69.93;100474.84;5012009;28;20029;-78
2022/06/10 02:30:53;;;;;;;7.65;6.90;;;;;;;21.62;70.82;100486.34;5031911;28;20532;-77
2022/06/10 02:33:19;;;;;;;8.32;7.50;;;;;;;21.55;70.92;100478.81;5027923;28;20056;-78
2022/06/10 02:35:57;;;;;;;8.65;7.70;;;;;;;21.50;71.60;100470.22;5013935;28;20123;-75
2022/06/10 02:38:38;;;;;;;9.90;8.50;;;;;;;21.37;72.48;100471.03;5033245;28;20121;-76
2022/06/10 02:41:41;;;;;;;10.35;8.15;;;;;;;21.36;72.30;100472.00;5023591;28;20049;-75
2022/06/10 02:44:49;;;;;;;9.20;8.13;;;;;;;21.14;74.24;100474.28;4980858;28;20073;-76
2022/06/10 02:47:14;;;;;;;9.95;8.77;;;;;;;21.15;73.33;100471.53;5011824;28;20083;-76
2022/06/10 02:49:40;;;;;;;11.35;10.15;;;;;;;21.19;73.56;100482.91;5030710;28;20030;-77
2022/06/10 02:52:08;;;;;;;10.68;9.30;;;;;;;21.23;73.04;100481.75;5032135;28;20037;-75
2022/06/10 02:54:37;;;;;;;10.70;8.85;;;;;;;21.25;72.84;100486.97;5012917;28;20052;-74
2022/06/10 02:57:14;;;;;;;9.95;8.88;;;;;;;21.33;73.20;100484.69;5030158;28;20063;-75
2022/06/10 03:02:50;;;;;;;10.10;9.10;;;;;;;21.28;73.84;100487.63;5028072;28;20039;-76
2022/06/10 03:05:33;;;;;;;13.30;10.48;;;;;;;21.13;74.96;100494.81;5026528;28;20033;-75
2022/06/10 03:08:14;;;;;;;12.25;9.75;;;;;;;21.34;73.22;100500.66;5017618;28;20099;-77
2022/06/10 03:11:19;;;;;;;11.68;10.23;;;;;;;21.30;73.60;100501.75;5032105;28;20029;-75
2022/06/10 03:14:00;;;;;;;13.43;10.82;;;;;;;21.25;73.97;100493.16;5029333;28;20389;-74
2022/06/10 03:17:02;;;;;;;16.10;12.95;;;;;;;21.43;73.34;100501.88;5029128;28;20072;-76
2022/06/10 03:19:36;;;;;;;12.87;11.37;;;;;;;21.35;73.00;100507.69;5032028;28;20031;-75
2022/06/10 03:22:07;;;;;;;15.43;12.10;;;;;;;21.38;73.58;100504.84;5031370;28;20282;-76
2022/06/10 03:24:45;;;;;;;15.50;13.80;;;;;;;21.22;74.61;100504.03;5031433;28;20123;-73
2022/06/10 03:27:22;;;;;;;16.65;12.30;;;;;;;21.33;73.67;100506.94;5027426;28;20057;-76
2022/06/10 03:29:59;;;;;;;18.25;15.10;;;;;;;21.33;73.77;100519.44;5029635;28;20037;-77
2022/06/10 03:32:29;;;;;;;17.90;14.07;;;;;;;21.30;74.17;100520.44;5030992;28;20473;-75
2022/06/10 03:35:06;;;;;;;19.48;16.45;;;;;;;21.26;74.65;100523.41;5013033;28;20034;-76
2022/06/10 03:37:32;;;;;;;17.13;14.77;;;;;;;21.26;74.36;100520.75;5030963;28;20029;-77
2022/06/10 03:39:58;;;;;;;20.35;17.88;;;;;;;21.14;75.11;100519.72;5030186;28;20106;-77
2022/06/10 03:42:25;;;;;;;22.55;17.33;;;;;;;21.14;74.88;100519.72;5031610;28;20385;-76
2022/06/10 03:44:54;;;;;;;23.42;19.33;;;;;;;20.92;76.28;100526.41;5031368;28;20109;-77
2022/06/10 03:47:30;;;;;;;22.75;19.40;;;;;;;21.00;76.08;100530.44;5011440;28;20084;-76
2022/06/10 03:50:01;;;;;;;26.40;20.10;;;;;;;20.96;75.50;100539.59;5031487;28;20408;-77
2022/06/10 03:52:31;;;;;;;22.77;18.35;;;;;;;21.12;74.53;100541.19;5029769;28;20114;-77
2022/06/10 03:54:56;;;;;;;27.05;22.13;;;;;;;21.09;73.89;100538.72;5031655;28;20056;-73
2022/06/10 03:57:22;;;;;;;22.60;18.85;;;;;;;21.03;73.62;100556.94;5031244;28;20401;-76
2022/06/10 03:59:48;;;;;;;27.90;22.33;;;;;;;21.08;73.25;100550.34;5030695;28;20041;-75
2022/06/10 04:02:15;;;;;;;29.90;22.75;;;;;;;20.86;73.63;100550.81;5011666;28;20041;-77
2022/06/10 04:04:42;;;;;;;28.75;22.35;;;;;;;20.85;73.41;100556.25;5010699;28;20370;-76
2022/06/10 04:07:10;;;;;;;27.40;23.25;;;;;;;20.83;73.29;100560.84;5030178;28;20052;-77
2022/06/10 04:09:36;;;;;;;27.17;22.40;;;;;;;20.86;72.95;100561.50;5011986;28;20033;-76
2022/06/10 04:12:02;;;;;;;27.83;21.95;;;;;;;20.85;72.81;100564.28;5013375;28;20477;-77
2022/06/10 04:14:27;;;;;;;31.42;24.83;;;;;;;20.73;72.78;100573.88;5030594;28;20120;-78
2022/06/10 04:16:53;;;;;;;25.45;19.42;;;;;;;20.77;72.47;100570.09;5031522;28;20060;-77
2022/06/10 04:19:18;;;;;;;27.13;22.45;;;;;;;20.72;72.39;100574.84;5032980;28;20452;-78
2022/06/10 04:21:44;;;;;;;28.00;22.58;;;;;;;20.35;73.59;100577.03;5015781;28;20488;-77
2022/06/10 04:24:09;;;;;;;26.00;21.25;;;;;;;20.41;73.19;100584.66;5017628;28;20033;-77
2022/06/10 04:26:35;;;;;;;25.30;21.35;;;;;;;20.43;72.75;100573.91;5033891;28;20040;-78
2022/06/10 04:29:00;;;;;;;26.60;22.00;;;;;;;20.15;73.23;100594.22;5034309;28;20116;-78
2022/06/10 04:31:26;;;;;;;27.65;20.73;;;;;;;20.41;72.49;100592.66;5034096;28;20045;-78
2022/06/10 04:33:51;;;;;;;23.27;19.13;;;;;;;20.57;71.40;100591.78;5033271;28;20045;-78
2022/06/10 04:36:18;;;;;;;22.00;18.35;;;;;;;20.62;71.05;100592.38;5014173;28;20049;-78
2022/06/10 04:38:44;;;;;;;25.02;18.70;;;;;;;20.73;70.46;100597.91;5030908;28;20030;-78
2022/06/10 04:41:11;;;;;;;22.38;19.27;;;;;;;20.74;69.83;100604.97;5028089;28;20044;-78
2022/06/10 04:43:37;;;;;;;18.95;16.42;;;;;;;20.84;69.75;100592.78;5031204;28;20035;-76
2022/06/10 04:46:06;;;;;;;20.38;17.75;;;;;;;20.81;69.31;100600.97;5034047;28;20033;-78
2022/06/10 04:48:32;;;;;;;22.10;18.58;;;;;;;20.81;69.78;100603.66;5033190;28;20084;-77
2022/06/10 04:50:57;;;;;;;20.17;16.83;;;;;;;21.06;68.84;100610.16;5033342;28;20049;-77
2022/06/10 04:53:23;;;;;;;19.65;16.92;;;;;;;21.19;68.30;100605.81;5032327;28;20068;-77
2022/06/10 04:55:49;;;;;;;18.83;16.55;;;;;;;21.32;67.90;100612.13;5032448;28;20029;-77
2022/06/10 04:58:15;;;;;;;16.55;14.73;;;;;;;21.40;67.33;100611.63;5032631;28;21040;-77
2022/06/10 05:00:45;;;;;;;19.35;16.73;;;;;;;21.32;67.51;100611.22;5032417;28;21828;-73
2022/06/10 05:03:10;;;;;;;21.50;17.33;;;;;;;21.30;67.18;100624.66;5028998;28;20033;-77
2022/06/10 05:05:37;;;;;;;18.73;16.02;;;;;;;21.51;66.88;100619.00;5030794;28;20082;-76
2022/06/10 05:08:04;;;;;;;19.20;15.25;;;;;;;21.47;66.33;100623.66;5033892;28;20060;-78
2022/06/10 05:10:30;;;;;;;18.27;15.20;;;;;;;21.34;66.76;100636.94;5011951;28;20041;-78
2022/06/10 05:12:55;;;;;;;18.52;14.82;;;;;;;21.46;66.48;100639.78;4997741;28;20040;-78
2022/06/10 05:15:21;;;;;;;17.35;14.90;;;;;;;21.49;66.07;100640.44;5030438;28;20051;-78
2022/06/10 05:17:52;;;;;;;15.88;14.05;;;;;;;21.39;66.15;100640.19;5034189;28;20082;-78
2022/06/10 05:20:23;;;;;;;14.52;13.02;;;;;;;21.43;65.40;100634.66;5033454;28;20037;-78
2022/06/10 05:22:49;;;;;;;14.52;12.95;;;;;;;21.52;65.69;100644.75;5033626;28;20036;-77
2022/06/10 05:25:15;;;;;;;17.05;14.18;;;;;;;21.43;65.48;100661.38;5019009;28;20051;-75
2022/06/10 05:27:40;;;;;;;14.55;12.90;;;;;;;21.22;66.03;100663.50;5032752;28;20470;-76
2022/06/10 05:30:09;;;;;;;14.73;11.77;;;;;;;21.19;65.77;100672.59;4997875;28;20044;-79
2022/06/10 05:32:35;;;;;;;11.48;10.18;;;;;;;21.34;65.54;100674.38;5011873;28;20416;-76
2022/06/10 05:35:01;;;;;;;12.82;10.70;;;;;;;21.45;65.11;100670.16;5014936;28;20029;-79
2022/06/10 05:37:26;;;;;;;11.50;10.30;;;;;;;21.42;64.84;100675.69;5033552;28;20033;-78
2022/06/10 05:39:53;;;;;;;10.95;9.73;;;;;;;21.43;64.74;100677.41;5033852;28;20028;-78
2022/06/10 05:42:19;;;;;;;10.65;8.65;;;;;;;21.21;65.13;100684.03;5031545;28;20041;-75
2022/06/10 05:44:47;;;;;;;11.68;9.05;;;;;;;21.24;65.27;100683.84;5032172;28;20465;-78
2022/06/10 05:47:20;;;;;;;10.13;8.38;;;;;;;21.37;64.79;100682.16;5028904;28;20483;-78
2022/06/10 05:49:48;;;;;;;9.48;8.45;;;;;;;21.39;64.54;100687.44;5019525;28;20037;-77
2022/06/10 05:52:16;;;;;;;8.50;7.60;;;;;;;21.53;64.15;100683.91;5031158;28;20045;-78
2022/06/10 05:54:44;;;;;;;8.35;7.53;;;;;;;21.53;63.42;100684.75;5034257;28;20030;-79
2022/06/10 05:57:11;;;;;;;8.80;7.90;;;;;;;21.43;63.50;100688.97;5032759;28;20037;-78
2022/06/10 05:59:36;;;;;;;7.78;7.00;;;;;;;21.38;63.77;100686.59;5032431;28;20381;-73
2022/06/10 06:02:05;;;;;;;9.52;8.07;;;;;;;21.40;63.65;100694.50;5032755;28;20037;-78
2022/06/10 06:04:31;;;;;;;8.82;7.93;;;;;;;21.55;63.28;100700.72;5032954;28;20405;-78
2022/06/10 06:06:56;;;;;;;9.07;7.72;;;;;;;21.32;63.55;100697.63;5014556;28;20045;-77
2022/06/10 06:09:22;;;;;;;10.18;7.07;;;;;;;21.36;63.54;100703.66;5031409;28;20033;-77
2022/06/10 06:11:50;;;;;;;8.70;7.80;;;;;;;21.60;63.16;100699.47;5032748;28;20038;-76
2022/06/10 06:14:17;;;;;;;9.20;6.28;;;;;;;21.62;62.42;100700.25;5013535;28;20553;-78
2022/06/10 06:16:47;;;;;;;9.77;7.32;;;;;;;21.55;62.61;100698.03;5036422;28;20431;-77
2022/06/10 06:19:12;;;;;;;9.88;6.80;;;;;;;21.70;62.56;100713.09;5009786;28;20052;-75
2022/06/10 06:21:37;;;;;;;8.10;6.65;;;;;;;21.24;63.70;100710.56;5032837;28;20064;-77
2022/06/10 06:24:03;;;;;;;6.93;6.22;;;;;;;21.39;63.13;100704.31;5029991;28;20053;-76
2022/06/10 06:26:28;;;;;;;9.40;7.30;;;;;;;21.58;62.86;100713.88;5014518;28;20037;-76
2022/06/10 06:28:54;;;;;;;8.15;6.97;;;;;;;21.39;63.12;100719.50;5033152;28;20034;-77
2022/06/10 06:31:19;;;;;;;8.13;6.82;;;;;;;21.62;62.88;100724.31;5032406;28;20105;-77
2022/06/10 06:33:45;;;;;;;9.73;6.90;;;;;;;21.73;62.34;100726.28;5014146;28;20441;-76
2022/06/10 06:36:24;;;;;;;8.23;6.65;;;;;;;21.71;62.04;100730.88;5030710;28;20075;-78
2022/06/10 06:38:50;;;;;;;9.23;7.10;;;;;;;21.78;62.18;100728.66;5033069;28;20477;-77
2022/06/10 06:41:17;;;;;;;8.60;5.80;;;;;;;21.68;62.76;100733.75;5031969;28;20112;-77
2022/06/10 06:43:43;;;;;;;7.38;5.95;;;;;;;21.65;62.79;100729.44;5014744;28;20092;-77
2022/06/10 06:46:12;;;;;;;12.63;6.10;;;;;;;21.70;62.47;100738.97;5014618;28;20140;-78
2022/06/10 06:48:37;;;;;;;8.32;6.20;;;;;;;22.00;61.98;100730.84;5032577;28;20037;-76
2022/06/10 06:51:03;;;;;;;9.23;6.20;;;;;;;22.17;61.38;100733.34;5032416;28;20049;-78
2022/06/10 06:53:28;;;;;;;6.78;5.68;;;;;;;22.39;60.67;100735.50;5035580;28;20036;-70
2022/06/10 06:55:54;;;;;;;7.20;5.60;;;;;;;22.36;60.90;100741.03;5026670;28;20049;-76
2022/06/10 06:58:20;;;;;;;8.93;5.88;;;;;;;22.28;60.97;100748.72;5014891;28;20042;-77
2022/06/10 07:00:46;;;;;;;8.10;6.78;;;;;;;21.91;62.00;100753.69;5014996;28;20030;-77
2022/06/10 07:03:12;;;;;;;7.43;5.70;;;;;;;22.35;60.60;100747.34;5032737;28;20074;-73
2022/06/10 07:05:37;;;;;;;6.97;5.90;;;;;;;22.41;60.20;100756.78;5032771;28;20069;-76
2022/06/10 07:08:03;;;;;;;7.30;5.40;;;;;;;22.53;59.93;100756.00;5032357;28;20041;-75
2022/06/10 07:10:29;;;;;;;7.47;5.63;;;;;;;22.42;59.88;100754.00;5032552;28;20139;-76
2022/06/10 07:12:54;;;;;;;11.45;4.80;;;;;;;22.74;59.21;100754.59;5031108;28;20057;-76
2022/06/10 07:15:21;;;;;;;5.95;4.93;;;;;;;22.93;58.71;100764.94;5006647;28;20060;-76
2022/06/10 07:17:46;;;;;;;7.03;5.03;;;;;;;22.91;58.68;100774.94;5013034;28;20034;-73
2022/06/10 07:20:21;;;;;;;7.80;4.28;;;;;;;22.76;57.48;100767.88;5031541;28;20052;-76
2022/06/10 07:22:47;;;;;;;7.60;4.40;;;;;;;23.44;57.08;100773.09;5014996;28;20030;-77
2022/06/10 07:25:14;;;;;;;5.30;4.25;;;;;;;23.92;56.08;100783.19;5033174;28;20021;-77
2022/06/10 07:27:40;;;;;;;6.15;4.00;;;;;;;23.80;55.25;100783.09;5015520;28;20029;-77
2022/06/10 07:30:07;;;;;;;5.15;4.05;;;;;;;23.97;55.33;100797.13;5006685;28;20366;-78
2022/06/10 07:32:32;;;;;;;5.20;4.13;;;;;;;24.08;54.95;100786.50;5026479;28;20034;-75
2022/06/10 07:34:58;;;;;;;4.50;3.60;;;;;;;24.14;54.64;100780.72;5016716;28;20061;-77
2022/06/10 07:37:23;;;;;;;6.07;4.30;;;;;;;24.05;54.84;100792.09;5013213;28;20065;-77
2022/06/10 07:39:49;;;;;;;4.22;3.83;;;;;;;24.03;55.01;100789.53;5029196;28;20108;-77
2022/06/10 07:42:15;;;;;;;7.47;3.78;;;;;;;23.96;54.59;100803.47;5023813;28;20069;-74
2022/06/10 07:44:40;;;;;;;4.68;3.15;;;;;;;24.03;54.82;100791.34;5020154;28;20026;-72
2022/06/10 07:47:12;;;;;;;4.32;3.47;;;;;;;24.09;54.15;100794.44;5025384;28;20033;-78
2022/06/10 07:49:38;;;;;;;5.40;2.70;;;;;;;24.20;54.62;100795.50;5027757;28;20037;-75
2022/06/10 07:52:04;;;;;;;4.40;2.70;;;;;;;24.32;54.01;100795.47;5031997;28;20053;-78
2022/06/10 07:54:31;;;;;;;3.90;2.75;;;;;;;24.42;53.84;100794.84;5017765;28;20112;-77
2022/06/10 07:56:56;;;;;;;4.03;2.75;;;;;;;24.45;53.52;100789.22;5018040;28;20042;-77
2022/06/10 07:59:22;;;;;;;4.43;2.88;;;;;;;24.45;53.62;100799.97;5017738;28;20096;-75
2022/06/10 08:01:48;;;;;;;4.80;3.03;;;;;;;24.22;53.82;100802.50;5026181;28;20083;-75
2022/06/10 08:04:13;;;;;;;3.88;3.00;;;;;;;23.97;53.81;100799.81;5017745;28;20042;-75
2022/06/10 08:06:44;;;;;;;2.70;2.22;;;;;;;24.25;52.80;100809.44;5035381;28;20045;-75
2022/06/10 08:09:10;;;;;;;4.10;3.00;;;;;;;24.01;53.03;100818.28;5035770;28;20027;-75
2022/06/10 08:11:37;;;;;;;6.38;3.03;;;;;;;23.91;53.31;100817.22;5013306;28;20081;-76
2022/06/10 08:14:04;;;;;;;3.50;2.60;;;;;;;23.69;53.68;100812.50;5017261;28;20035;-77
2022/06/10 08:16:30;;;;;;;7.32;2.85;;;;;;;23.83;53.53;100823.13;5027917;28;20033;-76
2022/06/10 08:18:56;;;;;;;3.42;2.58;;;;;;;23.74;53.83;100815.75;5033815;28;20522;-76
2022/06/10 08:24:06;;;;;;;3.95;2.70;;;;;;;23.76;53.86;100819.16;5047033;28;20080;-76
2022/06/10 08:26:33;;;;;;;5.43;2.85;;;;;;;23.87;53.27;100813.03;5036177;28;20029;-75
2022/06/10 08:29:00;;;;;;;4.15;2.80;;;;;;;24.35;52.47;100826.63;5051440;28;20663;-74
2022/06/10 08:31:26;;;;;;;5.13;3.05;;;;;;;24.76;51.70;100818.25;5044716;28;20075;-76
2022/06/10 08:33:52;;;;;;;3.85;2.60;;;;;;;25.03;51.36;100823.38;5017735;28;20484;-75
2022/06/10 08:36:18;;;;;;;4.28;2.67;;;;;;;25.15;51.01;100826.16;5043398;28;20060;-75
2022/06/10 08:38:43;;;;;;;4.25;2.67;;;;;;;25.28;50.67;100824.25;5031706;28;20037;-73
2022/06/10 08:41:23;;;;;;;6.10;2.97;;;;;;;25.36;49.31;100824.53;5051625;28;20453;-77
2022/06/10 08:44:09;;;;;;;4.63;2.58;;;;;;;25.51;49.08;100828.72;5044945;28;20033;-70
2022/06/10 08:46:47;;;;;;;9.05;3.53;;;;;;;25.66;49.38;100832.06;5043844;28;20115;-75
2022/06/10 08:49:39;;;;;;;3.28;2.97;;;;;;;25.44;49.25;100840.06;5038552;28;20112;-76
2022/06/10 08:52:15;;;;;;;6.80;2.95;;;;;;;25.05;50.26;100845.66;5040976;28;20116;-77
2022/06/10 08:54:55;;;;;;;5.18;3.30;;;;;;;24.97;50.36;100847.16;5039945;28;20037;-77
2022/06/10 08:57:37;;;;;;;4.03;2.90;;;;;;;24.72;50.17;100851.69;5026435;28;20418;-76
2022/06/10 09:00:12;;;;;;;3.85;3.17;;;;;;;24.46;50.98;100848.22;5049102;28;20047;-74
2022/06/10 09:02:55;;;;;;;3.88;3.20;;;;;;;24.53;51.23;100854.00;5030282;28;20028;-77
2022/06/10 09:05:28;;;;;;;6.13;3.38;;;;;;;24.70;50.42;100861.69;5032656;28;20460;-76
2022/06/10 09:07:57;;;;;;;;;;;;;;;24.34;50.68;100874.09;5049178;28;20037;-76
2022/06/10 09:10:42;;;;;;;4.22;2.80;;;;;;;24.74;51.22;100876.63;5034192;28;19997;-75
2022/06/10 09:13:18;;;;;;;4.38;3.10;;;;;;;24.83;50.26;100875.09;5024453;28;20042;-75
2022/06/10 09:16:02;;;;;;;4.75;3.03;;;;;;;24.55;50.59;100895.03;5038015;28;20397;-75
2022/06/10 09:18:39;;;;;;;4.75;3.42;;;;;;;24.16;51.20;100896.88;5036717;28;20064;-74
2022/06/10 09:21:26;;;;;;;3.63;3.17;;;;;;;24.13;51.40;100889.03;5041750;28;20041;-76
2022/06/10 09:23:58;;;;;;;4.63;3.45;;;;;;;24.16;51.91;100891.50;5039272;28;20479;-75
2022/06/10 09:26:35;;;;;;;4.93;3.08;;;;;;;24.19;50.46;100891.28;5042191;28;20040;-76
2022/06/10 09:29:01;;;;;;;5.75;2.70;;;;;;;24.11;51.54;100876.69;5054828;28;20094;-76
2022/06/10 09:31:48;;;;;;;5.43;3.47;;;;;;;23.88;50.49;100899.75;5054342;28;20033;-76
2022/06/10 09:34:28;;;;;;;4.05;3.05;;;;;;;23.80;50.86;100901.16;5053253;28;20033;-76
2022/06/10 09:37:06;;;;;;;3.90;3.10;;;;;;;24.09;50.42;100898.25;5033348;28;20224;-75
2022/06/10 09:42:43;;;;;;;3.85;2.85;;;;;;;24.34;50.42;100910.84;5035900;28;20068;-77
2022/06/10 09:45:19;;;;;;;3.40;3.00;;;;;;;24.19;50.93;100904.72;5034565;28;20091;-72
2022/06/10 09:48:03;;;;;;;6.18;3.20;;;;;;;24.33;51.21;100906.41;5033675;28;20388;-74
2022/06/10 09:50:38;;;;;;;6.85;3.45;;;;;;;24.15;51.19;100922.00;5030623;28;20134;-75
2022/06/10 09:53:31;;;;;;;4.28;3.65;;;;;;;23.51;53.21;100915.66;5032492;28;20178;-75
2022/06/10 09:56:20;;;;;;;4.32;3.30;;;;;;;23.99;52.29;100927.56;5035809;28;20037;-75
2022/06/10 09:59:01;;;;;;;4.00;2.60;;;;;;;24.60;51.32;100917.06;5032701;28;20116;-76
2022/06/10 10:01:40;;;;;;;5.32;2.88;;;;;;;24.49;50.69;100919.63;5039058;28;20029;-76
2022/06/10 10:04:52;;;;;;;4.07;3.17;;;;;;;24.36;50.85;100935.75;5020104;28;20439;-77
2022/06/10 10:07:36;;;;;;;2.92;2.42;;;;;;;24.48;50.40;100918.78;5030138;28;20396;-76
2022/06/10 10:10:14;;;;;;;4.03;2.60;;;;;;;24.57;49.93;100928.88;5030740;28;20120;-72
2022/06/10 10:13:10;;;;;;;3.67;2.83;;;;;;;25.04;48.76;100942.53;5029858;28;20045;-77
2022/06/10 10:15:43;;;;;;;4.28;2.78;;;;;;;25.10;49.02;100934.06;5028310;28;20040;-77
2022/06/10 10:18:33;;;;;;;4.43;2.50;;;;;;;24.94;49.09;100946.88;5037177;28;20461;-77
2022/06/10 10:21:18;;;;;;;4.22;3.03;;;;;;;24.44;49.58;100929.88;5039987;28;20377;-78
2022/06/10 10:23:48;;;;;;;3.08;2.30;;;;;;;24.37;49.85;100937.44;5038300;28;20048;-77
2022/06/10 10:26:22;;;;;;;5.40;2.17;;;;;;;24.19;50.92;100939.63;5040892;28;20108;-77
2022/06/10 10:28:55;;;;;;;4.70;2.78;;;;;;;24.04;50.68;100951.41;5041982;28;20464;-76
2022/06/10 10:31:27;;;;;;;2.85;2.47;;;;;;;23.93;51.25;100943.22;5033965;28;20056;-74
2022/06/10 10:33:53;;;;;;;4.20;1.98;;;;;;;24.16;50.99;100937.13;5037514;28;20116;-79
2022/06/10 10:36:28;;;;;;;3.25;2.22;;;;;;;24.38;50.47;100941.91;5018137;28;20120;-73
2022/06/10 10:38:54;;;;;;;4.95;2.00;;;;;;;24.49;50.59;100936.59;5042734;28;20484;-76
2022/06/10 10:41:42;;;;;;;4.65;2.40;;;;;;;24.56;49.98;100939.72;5020444;28;20128;-76
2022/06/10 10:44:20;;;;;;;2.78;2.20;;;;;;;24.71;49.18;100941.31;5034460;28;20057;-77
2022/06/10 10:47:21;;;;;;;4.75;2.40;;;;;;;25.48;47.94;100939.25;5047150;28;20037;-76
2022/06/10 10:49:50;;;;;;;2.75;2.00;;;;;;;25.74;46.87;100945.34;5038226;28;20029;-78
2022/06/10 10:52:41;;;;;;;2.47;1.70;;;;;;;26.18;46.10;100940.22;5048081;28;20033;-76
2022/06/10 10:55:13;;;;;;;2.30;1.90;;;;;;;26.75;45.74;100940.16;5029112;28;20048;-76
2022/06/10 10:57:45;;;;;;;2.83;1.92;;;;;;;27.08;44.97;100940.22;5017673;28;20091;-76
2022/06/10 11:00:10;;;;;;;2.42;2.20;;;;;;;27.29;44.20;100951.97;5042655;28;20086;-76
2022/06/10 11:02:51;;;;;;;3.20;2.00;;;;;;;26.68;43.90;100952.41;5036863;28;20424;-75
2022/06/10 11:05:31;;;;;;;3.03;1.95;;;;;;;26.87;43.99;100938.28;5032347;28;20041;-75
2022/06/10 11:08:37;;;;;;;3.63;1.95;;;;;;;26.54;44.20;100947.28;5014447;28;20043;-74
2022/06/10 11:11:17;;;;;;;3.67;2.15;;;;;;;26.83;43.17;100941.38;5010706;28;20068;-76
2022/06/10 11:13:52;;;;;;;3.45;2.03;;;;;;;26.73;42.89;100952.91;5027427;28;20033;-76
2022/06/10 11:16:19;;;;;;;3.08;1.77;;;;;;;27.05;43.79;100952.13;5014262;28;20395;-75
2022/06/10 11:18:46;;;;;;;2.38;1.80;;;;;;;27.21;43.77;100947.22;5014680;28;20037;-74
2022/06/10 11:21:12;;;;;;;3.28;1.95;;;;;;;26.90;44.50;100954.22;4997039;28;20034;-73
2022/06/10 11:23:52;;;;;;;4.07;2.17;;;;;;;27.20;43.13;100945.47;5014867;28;20075;-74
2022/06/10 11:26:21;;;;;;;3.17;2.20;;;;;;;26.60;44.23;100952.16;5015093;28;20026;-75
2022/06/10 11:28:49;;;;;;;7.07;2.20;;;;;;;26.71;44.32;100959.38;5038157;28;20029;-76
2022/06/10 11:31:30;;;;;;;3.25;2.40;;;;;;;26.67;43.69;100948.00;5037678;28;20064;-75
2022/06/10 11:33:58;;;;;;;5.68;2.08;;;;;;;26.92;43.62;100960.34;5036278;28;20114;-74
2022/06/10 11:36:35;;;;;;;3.00;2.25;;;;;;;27.20;43.66;100958.97;5042504;28;20021;-75
2022/06/10 11:39:17;;;;;;;2.45;2.05;;;;;;;26.89;44.12;100963.31;5018043;28;20056;-73
2022/06/10 11:41:57;;;;;;;4.20;1.90;;;;;;;26.28;43.74;100977.06;5035952;28;20029;-74
2022/06/10 11:44:25;;;;;;;3.42;1.77;;;;;;;26.24;44.15;100977.44;5035836;28;20112;-75
2022/06/10 11:47:00;;;;;;;2.85;1.70;;;;;;;26.03;44.63;100966.50;5036245;28;20049;-75
2022/06/10 11:49:34;;;;;;;3.20;1.55;;;;;;;26.10;44.66;100974.97;5034559;28;20021;-75
2022/06/10 11:52:08;;;;;;;2.47;1.40;;;;;;;25.95;43.81;100977.88;5031088;28;20153;-75
2022/06/10 11:55:10;;;;;;;1.92;1.48;;;;;;;25.86;44.74;100966.97;5035993;28;20033;-76